Time;durP1;ratioP1;P1;durP2;ratioP2;P2;SDS_P1;SDS_P2;PMS_P1;PMS_P2;Temp;Humidity;BMP_temperature;BMP_pressure;BME280_temperature;BME280_humidity;BME280_pressure;Samples;Min_cycle;Max_cycle;Signal;HPM_P1;HPM_P2
2023/01/20 00:00:03;;;;;;;115.10;60.60;;;;;;;-1.47;100.00;100884.16;6111186;23;20149;-84
2023/01/20 00:02:28;;;;;;;111.80;59.90;;;;;;;-1.48;100.00;100885.06;6111806;23;20043;-84
2023/01/20 00:04:54;;;;;;;108.88;56.75;;;;;;;-1.48;100.00;100895.50;6112180;23;20318;-85
2023/01/20 00:07:19;;;;;;;110.13;60.47;;;;;;;-1.48;100.00;100898.97;6115731;23;20080;-85
2023/01/20 00:09:44;;;;;;;112.13;58.45;;;;;;;-1.44;100.00;100899.84;6115964;23;20002;-85
2023/01/20 00:12:09;;;;;;;112.13;57.90;;;;;;;-1.46;100.00;100899.84;6116254;23;20048;-84
2023/01/20 00:14:35;;;;;;;107.80;57.25;;;;;;;-1.44;100.00;100907.66;6116938;23;20016;-85
2023/01/20 00:17:00;;;;;;;102.13;56.40;;;;;;;-1.43;100.00;100910.28;6116043;23;20005;-84
2023/01/20 00:19:26;;;;;;;108.78;56.67;;;;;;;-1.49;100.00;100904.19;6114014;23;20009;-84
2023/01/20 00:21:53;;;;;;;106.78;56.90;;;;;;;-1.50;100.00;100908.56;6116427;23;20020;-85
2023/01/20 00:24:18;;;;;;;100.13;54.85;;;;;;;-1.59;100.00;100905.91;6115508;23;20013;-84
2023/01/20 00:26:43;;;;;;;101.85;55.17;;;;;;;-1.60;100.00;100920.72;6117847;23;20010;-85
2023/01/20 00:29:09;;;;;;;103.60;53.65;;;;;;;-1.67;100.00;100918.09;6115724;23;20010;-84
2023/01/20 00:31:35;;;;;;;97.82;51.75;;;;;;;-1.70;100.00;100916.38;6117053;23;20199;-84
2023/01/20 00:34:01;;;;;;;99.68;51.28;;;;;;;-1.65;100.00;100930.28;6117664;23;20001;-84
2023/01/20 00:36:32;;;;;;;101.00;52.90;;;;;;;-1.70;100.00;100926.81;6116628;23;20048;-85
2023/01/20 00:38:59;;;;;;;103.15;52.30;;;;;;;-1.68;100.00;100926.81;6116967;23;20006;-84
2023/01/20 00:41:24;;;;;;;100.05;52.15;;;;;;;-1.70;100.00;100929.44;6117870;23;20010;-84
2023/01/20 00:43:50;;;;;;;106.97;53.30;;;;;;;-1.68;100.00;100929.41;6117890;23;20041;-84
2023/01/20 00:46:15;;;;;;;106.55;51.75;;;;;;;-1.70;100.00;100937.25;6117718;23;20065;-84
2023/01/20 00:48:41;;;;;;;108.40;54.25;;;;;;;-1.68;100.00;100939.84;6114807;23;20045;-84
2023/01/20 00:51:07;;;;;;;102.25;51.53;;;;;;;-1.70;100.00;100942.47;6115364;23;20751;-85
2023/01/20 00:53:33;;;;;;;109.10;53.10;;;;;;;-1.72;100.00;100948.56;6115133;23;20016;-85
2023/01/20 00:55:58;;;;;;;105.88;52.88;;;;;;;-1.73;100.00;100947.69;6119504;23;20009;-85
2023/01/20 00:58:24;;;;;;;111.90;52.67;;;;;;;-1.72;100.00;100941.59;6117285;23;20007;-84
2023/01/20 01:00:51;;;;;;;111.53;53.28;;;;;;;-1.70;100.00;100945.09;6120242;23;20006;-86
2023/01/20 01:03:17;;;;;;;117.97;56.00;;;;;;;-1.65;100.00;100945.94;6122334;23;20093;-85
2023/01/20 01:05:43;;;;;;;111.05;53.72;;;;;;;-1.63;100.00;100944.22;6129940;23;20025;-85
2023/01/20 01:08:09;;;;;;;106.07;53.13;;;;;;;-1.61;100.00;100944.22;6134784;23;20010;-86
2023/01/20 01:10:34;;;;;;;112.82;54.30;;;;;;;-1.61;100.00;100950.31;6144538;23;20026;-86
2023/01/20 01:13:01;;;;;;;115.53;53.90;;;;;;;-1.56;100.00;100940.72;6142807;23;20042;-86
2023/01/20 01:15:27;;;;;;;114.00;54.40;;;;;;;-1.59;100.00;100945.06;6143066;23;20021;-85
2023/01/20 01:17:54;;;;;;;107.80;53.58;;;;;;;-1.56;100.00;100947.69;6144396;23;20021;-84
2023/01/20 01:20:19;;;;;;;115.78;54.97;;;;;;;-1.52;100.00;100946.81;6125443;23;20069;-85
2023/01/20 01:22:45;;;;;;;110.15;51.10;;;;;;;-1.51;100.00;100951.16;6122938;23;20013;-84
2023/01/20 01:25:10;;;;;;;109.78;51.92;;;;;;;-1.51;100.00;100957.25;6121508;23;20012;-85
2023/01/20 01:27:35;;;;;;;116.32;52.90;;;;;;;-1.49;100.00;100961.63;6119778;23;20009;-85
2023/01/20 01:30:01;;;;;;;116.13;52.38;;;;;;;-1.49;100.00;100972.06;6117149;23;20014;-85
2023/01/20 01:32:26;;;;;;;116.10;53.47;;;;;;;-1.58;100.00;100958.16;6117702;23;20053;-85
2023/01/20 01:34:51;;;;;;;107.53;51.17;;;;;;;-1.47;100.00;100984.25;6119531;23;20113;-85
2023/01/20 01:37:17;;;;;;;101.47;48.63;;;;;;;-1.51;100.00;100985.09;6118850;23;20437;-84
2023/01/20 01:39:42;;;;;;;106.75;46.25;;;;;;;-1.53;100.00;100987.72;6117623;23;20053;-85
2023/01/20 01:42:16;;;;;;;99.95;45.55;;;;;;;-1.51;100.00;100979.88;6118915;23;20001;-86
2023/01/20 01:45:09;;;;;;;97.05;43.45;;;;;;;-1.51;100.00;100990.31;6119127;23;20769;-84
2023/01/20 01:47:38;;;;;;;98.68;43.85;;;;;;;-1.61;100.00;100972.94;6117243;23;20013;-85
2023/01/20 01:50:04;;;;;;;99.65;45.75;;;;;;;-1.53;100.00;100986.84;6118168;23;20045;-85
2023/01/20 01:52:31;;;;;;;103.75;44.08;;;;;;;-1.53;100.00;100987.72;6116256;23;20002;-85
2023/01/20 01:54:57;;;;;;;95.00;43.58;;;;;;;-1.51;100.00;100985.09;6117802;23;20017;-85
2023/01/20 01:57:23;;;;;;;95.57;44.20;;;;;;;-1.52;100.00;100986.84;6115400;23;20002;-85
2023/01/20 01:59:49;;;;;;;95.63;44.35;;;;;;;-1.52;100.00;100984.25;6119941;23;20181;-85
2023/01/20 02:02:14;;;;;;;100.32;44.10;;;;;;;-1.50;100.00;100986.88;6118519;23;20005;-85
2023/01/20 02:04:41;;;;;;;96.68;43.17;;;;;;;-1.49;100.00;100982.50;6118903;23;20025;-85
2023/01/20 02:07:13;;;;;;;103.72;44.42;;;;;;;-1.56;100.00;100977.28;6117220;23;20017;-85
2023/01/20 02:09:38;;;;;;;97.32;44.25;;;;;;;-1.48;100.00;100982.50;6117628;23;20013;-84
2023/01/20 02:12:09;;;;;;;92.00;43.10;;;;;;;-1.47;100.00;100986.84;6115951;23;20010;-85
2023/01/20 02:14:40;;;;;;;106.40;44.35;;;;;;;-1.45;100.00;100989.47;6115533;23;20033;-85
2023/01/20 02:17:18;;;;;;;99.40;44.45;;;;;;;-1.45;100.00;100987.75;6115040;23;20038;-85
2023/01/20 02:20:21;;;;;;;99.35;43.63;;;;;;;-1.43;100.00;100992.94;6115922;23;20002;-84
2023/01/20 02:22:56;;;;;;;98.78;44.40;;;;;;;-1.44;100.00;100986.00;6117033;23;20149;-85
2023/01/20 02:25:24;;;;;;;88.95;40.97;;;;;;;-1.42;100.00;100990.34;6116127;23;20779;-85
2023/01/20 02:28:27;;;;;;;96.30;43.38;;;;;;;-1.41;100.00;100993.84;6089921;23;20013;-85
2023/01/20 02:31:18;;;;;;;98.35;44.63;;;;;;;-1.42;100.00;100992.06;6115002;23;20006;-84
2023/01/20 02:34:04;;;;;;;100.65;43.30;;;;;;;-1.40;100.00;100998.19;6108626;23;20006;-85
2023/01/20 02:36:41;;;;;;;92.30;43.80;;;;;;;-1.42;100.00;100992.97;6116636;23;20006;-84
2023/01/20 02:39:29;;;;;;;98.50;44.58;;;;;;;-1.42;100.00;101003.41;6114879;23;20009;-84
2023/01/20 02:41:54;;;;;;;96.70;43.97;;;;;;;-1.42;100.00;100998.19;6116026;23;20081;-85
2023/01/20 02:44:35;;;;;;;98.35;43.33;;;;;;;-1.40;100.00;101008.63;6115056;23;20571;-85
2023/01/20 02:47:29;;;;;;;97.25;43.70;;;;;;;-1.40;100.00;101006.88;6089359;23;20014;-84
2023/01/20 02:50:00;;;;;;;92.95;41.88;;;;;;;-1.43;100.00;101016.44;6116420;23;20010;-85
2023/01/20 02:52:31;;;;;;;93.05;43.00;;;;;;;-1.44;100.00;101006.88;6116677;23;20127;-85
2023/01/20 02:55:02;;;;;;;90.20;42.25;;;;;;;-1.42;100.00;101015.56;6116349;23;20361;-85
2023/01/20 02:57:31;;;;;;;90.10;42.35;;;;;;;-1.42;100.00;101015.56;6114656;23;20332;-84
2023/01/20 03:00:05;;;;;;;86.55;39.08;;;;;;;-1.43;100.00;101019.91;6088425;23;20081;-84
2023/01/20 03:02:33;;;;;;;88.15;40.50;;;;;;;-1.42;100.00;101012.97;6089757;23;20687;-84
2023/01/20 03:05:28;;;;;;;80.80;40.00;;;;;;;-1.50;100.00;101007.75;6115791;23;20081;-84
2023/01/20 03:07:54;;;;;;;83.53;40.30;;;;;;;-1.48;100.00;101016.44;6115129;23;20033;-85
2023/01/20 03:10:24;;;;;;;82.82;39.78;;;;;;;-1.49;100.00;101009.50;6129714;23;20005;-85
2023/01/20 03:12:54;;;;;;;81.90;38.88;;;;;;;-1.49;100.00;101011.22;6128313;23;20002;-85
2023/01/20 03:15:24;;;;;;;82.15;39.47;;;;;;;-1.45;100.00;100999.94;6133473;23;20002;-84
2023/01/20 03:17:49;;;;;;;81.82;38.78;;;;;;;-1.50;100.00;101007.75;6136646;23;20016;-84
2023/01/20 03:20:15;;;;;;;80.85;38.60;;;;;;;-1.45;100.00;101011.22;6137704;23;20006;-85
2023/01/20 03:22:41;;;;;;;83.35;38.45;;;;;;;-1.45;100.00;101005.16;6137817;23;20009;-84
2023/01/20 03:25:08;;;;;;;81.35;39.08;;;;;;;-1.47;100.00;101012.97;6135540;23;20009;-84
2023/01/20 03:27:34;;;;;;;77.93;38.20;;;;;;;-1.53;100.00;101007.75;6118019;23;20008;-84
2023/01/20 03:29:59;;;;;;;80.82;39.63;;;;;;;-1.46;100.00;101019.94;6119218;23;20006;-84
2023/01/20 03:32:25;;;;;;;80.65;39.20;;;;;;;-1.46;100.00;101025.16;6119623;23;20010;-84
2023/01/20 03:34:53;;;;;;;82.20;39.95;;;;;;;-1.48;100.00;101024.28;6119187;23;20014;-85
2023/01/20 03:37:18;;;;;;;80.35;38.13;;;;;;;-1.44;100.00;101030.38;6117310;23;20324;-84
2023/01/20 03:39:43;;;;;;;82.18;38.78;;;;;;;-1.44;100.00;101028.63;6117799;23;20424;-84
2023/01/20 03:42:15;;;;;;;79.63;38.22;;;;;;;-1.44;100.00;101036.47;6117327;23;20085;-84
2023/01/20 03:44:50;;;;;;;84.07;39.88;;;;;;;-1.43;100.00;101032.97;6117139;23;20010;-84
2023/01/20 03:47:27;;;;;;;81.47;40.72;;;;;;;-1.42;100.00;101026.00;6116100;23;20424;-84
2023/01/20 03:50:21;;;;;;;79.93;38.85;;;;;;;-1.43;100.00;101027.75;6116823;23;20009;-84
2023/01/20 03:53:17;;;;;;;84.63;39.80;;;;;;;-1.42;100.00;101026.91;6116989;23;20006;-84
2023/01/20 03:55:48;;;;;;;85.28;41.17;;;;;;;-1.43;100.00;101032.09;6115297;23;20073;-83
2023/01/20 03:58:28;;;;;;;80.60;40.72;;;;;;;-1.45;100.00;101026.03;6115111;23;20001;-83
2023/01/20 04:00:56;;;;;;;84.03;42.08;;;;;;;-1.42;100.00;101037.34;6116327;23;20527;-84
2023/01/20 04:03:26;;;;;;;85.72;41.85;;;;;;;-1.40;100.00;101035.59;6115986;23;20049;-84
2023/01/20 04:05:52;;;;;;;83.65;41.75;;;;;;;-1.40;100.00;101029.50;6116540;23;20011;-84
2023/01/20 04:08:23;;;;;;;84.18;42.00;;;;;;;-1.41;100.00;101026.03;6114229;23;20025;-84
2023/01/20 04:10:50;;;;;;;87.32;43.67;;;;;;;-1.43;100.00;101035.59;6116961;23;20626;-83
2023/01/20 04:13:15;;;;;;;93.47;45.78;;;;;;;-1.39;100.00;101033.84;6114778;23;20014;-84
2023/01/20 04:15:44;;;;;;;90.90;44.75;;;;;;;-1.38;100.00;101032.97;6116249;23;20442;-84
2023/01/20 04:18:21;;;;;;;92.07;43.63;;;;;;;-1.39;100.00;101041.69;6112369;23;20002;-83
2023/01/20 04:21:02;;;;;;;94.90;45.03;;;;;;;-1.43;100.00;101042.56;6114977;23;20033;-84
2023/01/20 04:23:33;;;;;;;94.65;46.33;;;;;;;-1.39;100.00;101044.28;6114365;23;20017;-83
2023/01/20 04:25:59;;;;;;;98.95;46.03;;;;;;;-1.41;100.00;101039.09;6113362;23;20012;-84
2023/01/20 04:28:25;;;;;;;95.28;45.88;;;;;;;-1.40;100.00;101039.94;6112987;23;20014;-84
2023/01/20 04:30:50;;;;;;;98.85;47.78;;;;;;;-1.43;100.00;101037.31;6114590;23;20044;-84
2023/01/20 04:33:16;;;;;;;91.63;45.00;;;;;;;-1.42;100.00;101044.28;6114830;23;20014;-84
2023/01/20 04:35:41;;;;;;;85.32;43.88;;;;;;;-1.46;100.00;101043.44;6115417;23;20006;-84
2023/01/20 04:38:06;;;;;;;81.95;42.83;;;;;;;-1.45;100.00;101044.31;6114315;23;20050;-84
2023/01/20 04:40:32;;;;;;;83.90;43.50;;;;;;;-1.55;100.00;101031.25;6113678;23;20060;-84
2023/01/20 04:42:57;;;;;;;81.10;41.75;;;;;;;-1.46;100.00;101043.44;6115585;23;20033;-84
2023/01/20 04:45:22;;;;;;;75.40;40.80;;;;;;;-1.46;100.00;101039.94;6113972;23;20014;-84
2023/01/20 04:47:47;;;;;;;84.68;41.75;;;;;;;-1.46;100.00;101047.75;6113977;23;20081;-84
2023/01/20 04:50:14;;;;;;;79.72;42.30;;;;;;;-1.47;100.00;101048.63;6115072;23;20010;-84
2023/01/20 04:52:39;;;;;;;83.25;42.00;;;;;;;-1.47;100.00;101046.91;6114891;23;20093;-84
2023/01/20 04:55:05;;;;;;;83.97;43.83;;;;;;;-1.54;100.00;101048.63;6115169;23;20041;-84
2023/01/20 04:57:30;;;;;;;83.82;43.05;;;;;;;-1.51;100.00;101053.84;6114323;23;20005;-83
2023/01/20 04:59:55;;;;;;;83.13;41.75;;;;;;;-1.54;100.00;101051.25;6114871;23;20175;-84
2023/01/20 05:02:20;;;;;;;85.00;43.05;;;;;;;-1.49;100.00;101060.84;6114279;23;20538;-83
2023/01/20 05:04:46;;;;;;;81.32;42.58;;;;;;;-1.52;100.00;101059.94;6114018;23;20432;-84
2023/01/20 05:07:11;;;;;;;82.95;41.97;;;;;;;-1.52;100.00;101066.91;6114874;23;20013;-84
2023/01/20 05:09:36;;;;;;;80.28;41.42;;;;;;;-1.49;100.00;101076.50;6117622;23;20013;-83
2023/01/20 05:12:02;;;;;;;87.05;42.72;;;;;;;-1.47;100.00;101067.78;6116776;23;20448;-84
2023/01/20 05:14:27;;;;;;;87.15;43.42;;;;;;;-1.49;100.00;101071.28;6116889;23;20387;-83
2023/01/20 05:16:53;;;;;;;86.43;42.72;;;;;;;-1.49;100.00;101068.66;6116048;23;20092;-84
2023/01/20 05:19:18;;;;;;;80.47;42.70;;;;;;;-1.45;100.00;101068.66;6117206;23;20082;-84
2023/01/20 05:21:43;;;;;;;86.97;42.85;;;;;;;-1.47;100.00;101077.34;6120238;23;20089;-84
2023/01/20 05:24:09;;;;;;;84.45;42.05;;;;;;;-1.49;100.00;101066.91;6124995;23;20036;-83
2023/01/20 05:26:34;;;;;;;72.15;39.05;;;;;;;-1.51;100.00;101068.63;6133139;23;20013;-84
2023/01/20 05:29:01;;;;;;;80.78;40.20;;;;;;;-1.53;100.00;101068.66;6128665;23;20041;-84
2023/01/20 05:31:26;;;;;;;83.93;42.80;;;;;;;-1.57;100.00;101064.28;6126293;23;20008;-83
2023/01/20 05:33:52;;;;;;;83.43;41.83;;;;;;;-1.51;100.00;101068.63;6126400;23;20352;-83
2023/01/20 05:36:17;;;;;;;87.10;42.88;;;;;;;-1.49;100.00;101077.38;6124086;23;20005;-84
2023/01/20 05:38:42;;;;;;;82.35;42.08;;;;;;;-1.50;100.00;101075.63;6124214;23;20042;-84
2023/01/20 05:41:09;;;;;;;83.65;42.47;;;;;;;-1.52;100.00;101078.22;6120178;23;20183;-83
2023/01/20 05:43:35;;;;;;;84.35;42.55;;;;;;;-1.49;100.00;101086.94;6121939;23;20006;-83
2023/01/20 05:46:00;;;;;;;84.15;42.35;;;;;;;-1.52;100.00;101086.03;6119522;23;20439;-84
2023/01/20 05:48:26;;;;;;;80.10;40.63;;;;;;;-1.54;100.00;101087.78;6117334;23;20010;-84
2023/01/20 05:50:51;;;;;;;86.40;42.83;;;;;;;-1.52;100.00;101082.56;6117202;23;20036;-84
2023/01/20 05:53:17;;;;;;;81.55;42.78;;;;;;;-1.49;100.00;101081.72;6118840;23;20111;-83
2023/01/20 05:55:43;;;;;;;83.43;43.15;;;;;;;-1.51;100.00;101085.16;6117758;23;20032;-83
2023/01/20 05:58:09;;;;;;;88.55;45.28;;;;;;;-1.54;100.00;101074.75;6117482;23;20008;-83
2023/01/20 06:00:34;;;;;;;89.63;43.25;;;;;;;-1.50;100.00;101078.25;6116383;23;20006;-84
2023/01/20 06:02:59;;;;;;;87.07;43.65;;;;;;;-1.49;100.00;101094.78;6118676;23;20002;-84
2023/01/20 06:05:25;;;;;;;88.45;43.33;;;;;;;-1.49;100.00;101092.16;6116254;23;20009;-84
2023/01/20 06:07:50;;;;;;;81.40;41.10;;;;;;;-1.48;100.00;101094.75;6114969;23;20002;-84
2023/01/20 06:10:16;;;;;;;76.13;40.55;;;;;;;-1.49;100.00;101086.94;6117198;23;20037;-83
2023/01/20 06:12:42;;;;;;;76.53;40.50;;;;;;;-1.52;100.00;101093.88;6116947;23;20739;-83
2023/01/20 06:15:08;;;;;;;76.78;40.50;;;;;;;-1.53;100.00;101089.53;6115860;23;20002;-84
2023/01/20 06:17:34;;;;;;;86.50;43.17;;;;;;;-1.51;100.00;101093.00;6115990;23;20002;-83
2023/01/20 06:19:59;;;;;;;81.18;41.95;;;;;;;-1.56;100.00;101092.13;6116395;23;20423;-83
2023/01/20 06:22:25;;;;;;;80.40;40.15;;;;;;;-1.52;100.00;101093.88;6115755;23;20010;-84
2023/01/20 06:24:51;;;;;;;78.55;40.67;;;;;;;-1.46;100.00;101103.47;6112866;23;20088;-84
2023/01/20 06:27:16;;;;;;;77.10;40.70;;;;;;;-1.44;100.00;101106.09;6114712;23;20005;-85
2023/01/20 06:29:42;;;;;;;81.20;40.40;;;;;;;-1.44;100.00;101106.94;6116852;23;20105;-84
2023/01/20 06:32:07;;;;;;;80.80;41.00;;;;;;;-1.42;100.00;101113.06;6116607;23;20343;-84
2023/01/20 06:34:32;;;;;;;75.78;40.50;;;;;;;-1.41;100.00;101108.72;6115456;23;20010;-84
2023/01/20 06:36:58;;;;;;;76.57;39.20;;;;;;;-1.39;100.00;101104.34;6113600;23;20012;-83
2023/01/20 06:39:23;;;;;;;76.60;41.38;;;;;;;-1.45;100.00;101107.81;6117014;23;20006;-83
2023/01/20 06:41:48;;;;;;;78.95;41.45;;;;;;;-1.41;100.00;101111.31;6115888;23;20316;-84
2023/01/20 06:44:14;;;;;;;74.18;41.05;;;;;;;-1.45;100.00;101110.44;6114198;23;20006;-83
2023/01/20 06:46:39;;;;;;;79.85;42.40;;;;;;;-1.41;100.00;101112.19;6115228;23;20006;-83
2023/01/20 06:49:05;;;;;;;72.35;39.13;;;;;;;-1.41;100.00;101119.16;6115431;23;20010;-83
2023/01/20 06:51:32;;;;;;;78.50;40.22;;;;;;;-1.41;100.00;101111.31;6114834;23;20033;-84
2023/01/20 06:53:57;;;;;;;69.63;37.22;;;;;;;-1.40;100.00;101113.94;6113898;23;20006;-83
2023/01/20 06:56:23;;;;;;;72.97;40.05;;;;;;;-1.40;100.00;101113.94;6115714;23;20499;-84
2023/01/20 06:58:48;;;;;;;72.38;39.25;;;;;;;-1.40;100.00;101107.84;6115614;23;20007;-83
2023/01/20 07:01:22;;;;;;;68.40;36.50;;;;;;;-1.42;100.00;101100.00;6113834;23;20005;-84
2023/01/20 07:03:48;;;;;;;70.95;37.40;;;;;;;-1.43;100.00;101097.38;6116044;23;20037;-84
2023/01/20 07:06:27;;;;;;;70.47;36.63;;;;;;;-1.40;100.00;101106.09;6115003;23;20009;-84
2023/01/20 07:08:53;;;;;;;68.90;37.30;;;;;;;-1.38;100.00;101111.31;6115060;23;20010;-84
2023/01/20 07:11:18;;;;;;;77.47;38.47;;;;;;;-1.39;100.00;101114.78;6116986;23;20012;-83
2023/01/20 07:13:44;;;;;;;76.00;38.15;;;;;;;-1.40;100.00;101116.53;6114414;23;20009;-83
2023/01/20 07:16:10;;;;;;;71.85;38.28;;;;;;;-1.37;100.00;101119.16;6108958;23;20005;-84
2023/01/20 07:18:36;;;;;;;81.25;42.22;;;;;;;-1.41;100.00;101106.97;6114766;23;20010;-83
2023/01/20 07:21:01;;;;;;;78.53;40.85;;;;;;;-1.40;100.00;101115.66;6113345;23;20368;-84
2023/01/20 07:23:27;;;;;;;81.28;43.22;;;;;;;-1.36;100.00;101123.50;6115407;23;20010;-83
2023/01/20 07:26:01;;;;;;;80.93;43.17;;;;;;;-1.39;100.00;101120.00;6111597;23;20010;-83
2023/01/20 07:28:27;;;;;;;82.43;43.15;;;;;;;-1.36;100.00;101127.88;6129196;23;20002;-84
2023/01/20 07:30:52;;;;;;;82.47;41.65;;;;;;;-1.36;100.00;101133.09;6136322;23;20000;-84
2023/01/20 07:33:17;;;;;;;85.72;43.78;;;;;;;-1.40;100.00;101129.59;6137250;23;20119;-84
2023/01/20 07:35:43;;;;;;;82.03;42.35;;;;;;;-1.39;100.00;101133.94;6135809;23;19994;-84
2023/01/20 07:38:08;;;;;;;87.28;43.50;;;;;;;-1.39;100.00;101130.47;6138893;23;20289;-84
2023/01/20 07:40:33;;;;;;;89.68;43.00;;;;;;;-1.39;100.00;101133.06;6131320;23;20010;-84
2023/01/20 07:43:01;;;;;;;87.03;43.22;;;;;;;-1.37;100.00;101141.78;6119555;23;20002;-84
2023/01/20 07:45:26;;;;;;;82.93;42.35;;;;;;;-1.38;100.00;101138.31;6120104;23;20006;-84
2023/01/20 07:47:54;;;;;;;85.97;43.15;;;;;;;-1.41;100.00;101142.66;6120811;23;20040;-84
2023/01/20 07:50:20;;;;;;;88.68;43.00;;;;;;;-1.44;100.00;101133.06;6119545;23;20010;-84
2023/01/20 07:52:45;;;;;;;87.22;41.95;;;;;;;-1.35;100.00;101145.28;6121156;23;20037;-84
2023/01/20 07:55:10;;;;;;;84.72;42.92;;;;;;;-1.33;100.00;101151.38;6123018;23;20010;-84
2023/01/20 07:57:36;;;;;;;88.43;41.90;;;;;;;-1.32;100.00;101158.34;6120877;23;20440;-84
2023/01/20 08:00:01;;;;;;;88.50;43.83;;;;;;;-1.39;100.00;101138.28;6119904;23;20142;-84
2023/01/20 08:02:26;;;;;;;87.80;42.60;;;;;;;-1.33;100.00;101148.78;6118058;23;20009;-84
2023/01/20 08:04:52;;;;;;;86.55;41.25;;;;;;;-1.34;100.00;101155.75;6116466;23;20006;-84
2023/01/20 08:07:17;;;;;;;82.43;41.70;;;;;;;-1.32;100.00;101164.44;6116884;23;20006;-84
2023/01/20 08:09:42;;;;;;;81.93;41.55;;;;;;;-1.36;100.00;101147.00;6119530;23;20045;-84
2023/01/20 08:12:08;;;;;;;82.80;40.25;;;;;;;-1.30;100.00;101167.03;6118206;23;20005;-84
2023/01/20 08:14:33;;;;;;;83.05;42.45;;;;;;;-1.29;100.00;101163.59;6118178;23;20372;-84
2023/01/20 08:16:59;;;;;;;88.32;42.15;;;;;;;-1.33;100.00;101165.31;6117786;23;20009;-84
2023/01/20 08:19:28;;;;;;;84.63;42.47;;;;;;;-1.31;100.00;101166.16;6117570;23;20033;-84
2023/01/20 08:21:53;;;;;;;83.70;40.97;;;;;;;-1.36;100.00;101164.41;6115577;23;20022;-84
2023/01/20 08:24:18;;;;;;;78.63;40.97;;;;;;;-1.37;100.00;101160.06;6117633;23;20002;-84
2023/01/20 08:26:43;;;;;;;82.45;41.50;;;;;;;-1.38;100.00;101159.22;6117998;23;20002;-84
2023/01/20 08:29:09;;;;;;;80.10;41.33;;;;;;;-1.32;100.00;101172.25;6116257;23;20699;-84
2023/01/20 08:31:35;;;;;;;87.45;41.80;;;;;;;-1.35;100.00;101158.31;6115540;23;20061;-84
2023/01/20 08:34:00;;;;;;;84.35;41.22;;;;;;;-1.31;100.00;101165.31;6114671;23;20010;-84
2023/01/20 08:36:32;;;;;;;78.55;40.53;;;;;;;-1.29;100.00;101172.28;6115075;23;20006;-83
2023/01/20 08:39:01;;;;;;;82.53;41.15;;;;;;;-1.24;100.00;101176.66;6116627;23;20064;-84
2023/01/20 08:41:29;;;;;;;77.25;39.58;;;;;;;-1.29;100.00;101158.34;6116901;23;20061;-84
2023/01/20 08:43:57;;;;;;;77.80;39.47;;;;;;;-1.20;100.00;101173.19;6116320;23;20088;-83
2023/01/20 08:46:22;;;;;;;75.22;39.08;;;;;;;-1.23;100.00;101157.50;6117462;23;20020;-84
2023/01/20 08:48:49;;;;;;;69.57;36.80;;;;;;;-1.19;100.00;101175.78;6118445;23;20005;-84
2023/01/20 08:51:21;;;;;;;68.18;36.33;;;;;;;-1.17;100.00;101167.94;6118159;23;20025;-83
2023/01/20 08:53:47;;;;;;;68.18;36.25;;;;;;;-1.16;100.00;101161.88;6117040;23;20530;-83
2023/01/20 08:56:13;;;;;;;68.75;37.72;;;;;;;-1.20;100.00;101163.59;6115619;23;20018;-82
2023/01/20 08:58:39;;;;;;;61.88;35.47;;;;;;;-1.17;100.00;101165.31;6118295;23;20037;-83
2023/01/20 09:01:10;;;;;;;63.70;34.95;;;;;;;-1.18;100.00;101177.53;6116320;23;20029;-83
2023/01/20 09:03:35;;;;;;;64.05;35.60;;;;;;;-1.19;100.00;101170.56;6112804;23;20014;-84
2023/01/20 09:06:02;;;;;;;58.33;33.85;;;;;;;-1.19;100.00;101172.31;6113892;23;20006;-82
2023/01/20 09:08:28;;;;;;;60.67;33.55;;;;;;;-1.23;100.00;101166.19;6115137;23;20005;-83
2023/01/20 09:10:56;;;;;;;58.28;35.15;;;;;;;-1.21;100.00;101174.03;6117235;23;20450;-82
2023/01/20 09:13:21;;;;;;;57.55;33.78;;;;;;;-1.27;100.00;101172.28;6115125;23;20010;-83
2023/01/20 09:15:51;;;;;;;55.80;32.90;;;;;;;-1.23;100.00;101187.09;6113070;23;20072;-82
2023/01/20 09:18:16;;;;;;;57.10;33.17;;;;;;;-1.28;100.00;101178.38;6114588;23;20002;-83
2023/01/20 09:20:41;;;;;;;58.08;34.28;;;;;;;-1.33;100.00;101175.75;6115817;23;20166;-83
2023/01/20 09:23:06;;;;;;;57.85;34.35;;;;;;;-1.30;100.00;101185.31;6115734;23;20371;-83
2023/01/20 09:25:32;;;;;;;61.63;34.25;;;;;;;-1.33;100.00;101182.72;6113195;23;20005;-81
2023/01/20 09:28:00;;;;;;;59.00;33.67;;;;;;;-1.33;100.00;101193.16;6118899;23;20083;-84
2023/01/20 09:30:26;;;;;;;63.33;34.42;;;;;;;-1.36;100.00;101187.91;6113555;23;20335;-82
2023/01/20 09:32:54;;;;;;;65.55;35.72;;;;;;;-1.38;100.00;101179.19;6113235;23;20005;-83
2023/01/20 09:35:19;;;;;;;63.20;35.47;;;;;;;-1.33;100.00;101188.81;6114766;23;20009;-84
2023/01/20 09:46:23;;;;;;;65.18;35.40;;;;;;;-1.23;100.00;101199.28;6118877;23;20021;-82
2023/01/20 09:55:08;;;;;;;61.05;34.10;;;;;;;-1.05;100.00;101197.56;6119103;23;20053;-83
2023/01/20 09:57:39;;;;;;;59.85;34.78;;;;;;;-1.06;100.00;101195.84;6119399;23;20061;-82
2023/01/20 10:00:12;;;;;;;58.67;34.75;;;;;;;-1.04;100.00;101198.47;6117641;23;20065;-82
2023/01/20 10:02:40;;;;;;;;;;;;;;;-0.91;100.00;101205.47;6117385;23;20006;-83
2023/01/20 10:05:15;;;;;;;52.45;31.50;;;;;;;-0.95;100.00;101205.47;6116202;23;19951;-82
2023/01/20 10:07:54;;;;;;;53.35;31.83;;;;;;;-0.96;100.00;101206.31;6118765;23;20013;-83
2023/01/20 10:10:25;;;;;;;51.70;31.13;;;;;;;-1.02;100.00;101199.34;6116506;23;20108;-81
2023/01/20 10:13:05;;;;;;;48.83;29.80;;;;;;;-1.02;100.00;101194.97;6117108;23;20044;-82
2023/01/20 10:15:35;;;;;;;50.63;30.83;;;;;;;-1.07;100.00;101194.09;6114101;23;20010;-81
2023/01/20 10:18:24;;;;;;;50.55;30.60;;;;;;;-1.08;100.00;101202.81;6114804;23;20056;-82
2023/01/20 10:21:13;;;;;;;51.33;30.80;;;;;;;-1.13;100.00;101198.41;6117089;23;20017;-81
2023/01/20 10:23:45;;;;;;;53.30;30.90;;;;;;;-1.24;100.00;101181.88;6113724;23;20046;-82
2023/01/20 10:26:17;;;;;;;51.45;30.02;;;;;;;-1.21;100.00;101190.59;6115436;23;20056;-81
2023/01/20 10:28:52;;;;;;;50.22;29.65;;;;;;;-1.29;100.00;101174.03;6115347;23;20014;-82
2023/01/20 10:31:22;;;;;;;56.15;32.00;;;;;;;-1.17;100.00;101184.50;6114493;23;20016;-81
2023/01/20 10:33:48;;;;;;;46.22;29.40;;;;;;;-1.16;100.00;101190.59;6115218;23;20010;-81
2023/01/20 10:36:26;;;;;;;48.50;29.10;;;;;;;-1.19;100.00;101183.63;6114735;23;20009;-81
2023/01/20 10:39:03;;;;;;;48.13;29.00;;;;;;;-1.18;100.00;101185.34;6115597;23;20006;-81
2023/01/20 10:41:43;;;;;;;45.72;28.30;;;;;;;-1.17;100.00;101189.72;6115090;23;20097;-84
2023/01/20 10:44:13;;;;;;;47.33;29.30;;;;;;;-1.20;100.00;101188.84;6112094;23;20002;-81
2023/01/20 10:47:16;;;;;;;45.78;28.75;;;;;;;-1.16;100.00;101185.38;6115339;23;20005;-81
2023/01/20 10:50:20;;;;;;;43.17;27.38;;;;;;;-1.13;100.00;101182.75;6124332;23;20088;-78
2023/01/20 10:52:49;;;;;;;44.17;28.55;;;;;;;-1.07;100.00;101181.03;6115169;23;20017;-81
2023/01/20 10:55:20;;;;;;;42.28;27.15;;;;;;;-1.07;100.00;101181.03;6113807;23;20001;-82
2023/01/20 10:57:55;;;;;;;41.83;26.45;;;;;;;-0.98;100.00;101179.31;6115157;23;20080;-82
2023/01/20 11:00:27;;;;;;;41.60;27.50;;;;;;;-0.93;100.00;101173.22;6113991;23;20037;-82
2023/01/20 11:02:54;;;;;;;39.45;26.45;;;;;;;-0.93;100.00;101177.56;6114755;23;20016;-82
2023/01/20 11:05:23;;;;;;;36.95;26.08;;;;;;;-0.90;100.00;101181.06;6112856;23;20017;-83
2023/01/20 11:07:51;;;;;;;35.05;24.30;;;;;;;-0.91;100.00;101181.06;6115232;23;19998;-83
2023/01/20 11:10:20;;;;;;;34.58;25.55;;;;;;;-0.88;100.00;101184.56;6114709;23;20006;-83
2023/01/20 11:12:52;;;;;;;33.15;24.08;;;;;;;-0.89;100.00;101180.19;6114146;23;20038;-82
2023/01/20 11:15:21;;;;;;;33.90;24.10;;;;;;;-0.93;100.00;101172.34;6113170;23;20038;-82
2023/01/20 11:18:12;;;;;;;33.70;24.05;;;;;;;-0.91;100.00;101175.84;6114291;23;20005;-83
2023/01/20 11:20:43;;;;;;;37.25;26.38;;;;;;;-0.83;100.00;101177.59;6114710;23;20018;-82